createdAt,value
2019-05-03T00:02:24.245Z,3.40
2019-05-03T00:04:54.980Z,3.50
2019-05-03T00:07:23.974Z,3.40
2019-05-03T00:09:52.968Z,3.40
2019-05-03T00:12:22.229Z,3.30
2019-05-03T00:14:55.868Z,3.30
2019-05-03T00:17:24.862Z,3.40
2019-05-03T00:19:53.743Z,3.40
2019-05-03T00:22:22.639Z,3.40
2019-05-03T00:25:04.584Z,3.50
2019-05-03T00:27:21.954Z,3.50
2019-05-03T00:29:52.385Z,3.60
2019-05-03T00:32:21.743Z,3.70
2019-05-03T00:34:58.264Z,3.70
2019-05-03T00:37:28.790Z,3.70
2019-05-03T00:40:05.136Z,3.70
2019-05-03T00:42:34.147Z,3.70
2019-05-03T00:45:03.324Z,3.70
2019-05-03T00:47:32.830Z,3.70
2019-05-03T00:50:02.779Z,3.70
2019-05-03T00:52:32.066Z,3.70
2019-05-03T00:55:02.201Z,3.70
2019-05-03T00:57:32.290Z,3.70
2019-05-03T01:00:02.066Z,3.80
2019-05-03T01:02:31.799Z,3.80
2019-05-03T01:05:02.855Z,3.90
2019-05-03T01:07:32.006Z,3.90
2019-05-03T01:10:02.792Z,4.00
2019-05-03T01:12:32.387Z,4.00
2019-05-03T01:15:03.011Z,4.00
2019-05-03T01:17:32.728Z,3.90
2019-05-03T01:20:02.792Z,4.00
2019-05-03T01:22:32.194Z,4.00
2019-05-03T01:25:02.923Z,4.10
2019-05-03T01:27:32.544Z,4.10
2019-05-03T01:30:02.945Z,4.10
2019-05-03T01:32:32.989Z,4.20
2019-05-03T01:35:03.170Z,4.20
2019-05-03T01:37:32.358Z,4.30
2019-05-03T01:40:02.407Z,4.30
2019-05-03T01:42:32.113Z,4.30
2019-05-03T01:45:01.880Z,4.40
2019-05-03T01:47:32.739Z,4.50
2019-05-03T01:50:15.462Z,4.50
2019-05-03T01:52:52.461Z,4.60
2019-05-03T01:55:23.175Z,4.60
2019-05-03T01:57:52.466Z,4.50
2019-05-03T02:00:25.868Z,4.50
2019-05-03T02:03:02.446Z,4.40
2019-05-03T02:05:44.775Z,4.40
2019-05-03T02:08:14.559Z,4.40
2019-05-03T02:10:44.239Z,4.40
2019-05-03T02:13:13.161Z,4.40
2019-05-03T02:15:42.307Z,4.30
2019-05-03T02:18:14.775Z,4.30
2019-05-03T02:20:41.914Z,4.30
2019-05-03T02:23:11.916Z,4.30
2019-05-03T02:25:41.847Z,4.30
2019-05-03T02:28:12.666Z,4.30
2019-05-03T02:30:44.091Z,4.30
2019-05-03T02:33:13.528Z,4.30
2019-05-03T02:35:43.116Z,4.30
2019-05-03T02:38:12.981Z,4.20
2019-05-03T02:40:43.156Z,4.20
2019-05-03T02:43:16.369Z,4.20
2019-05-03T02:45:56.703Z,4.10
2019-05-03T02:48:36.224Z,4.00
2019-05-03T02:51:06.327Z,3.90
2019-05-03T02:53:36.686Z,3.90
2019-05-03T02:56:17.215Z,3.90
2019-05-03T02:58:35.993Z,4.00
2019-05-03T03:01:06.730Z,3.90
2019-05-03T03:03:36.642Z,3.80
2019-05-03T03:06:06.856Z,3.80
2019-05-03T03:08:37.811Z,3.80
2019-05-03T03:11:08.477Z,3.80
2019-05-03T03:13:39.059Z,3.70
2019-05-03T03:16:09.960Z,3.70
2019-05-03T03:18:40.319Z,3.70
2019-05-03T03:21:16.415Z,3.60
2019-05-03T03:24:07.090Z,3.60
2019-05-03T03:26:42.855Z,3.60
2019-05-03T03:29:11.463Z,3.70
2019-05-03T03:31:52.198Z,3.70
2019-05-03T03:34:28.121Z,3.60
2019-05-03T03:37:03.784Z,3.70
2019-05-03T03:39:26.322Z,3.80
2019-05-03T03:42:16.057Z,3.90
2019-05-03T03:44:46.016Z,3.80
2019-05-03T03:47:16.761Z,3.90
2019-05-03T03:49:48.119Z,4.00
2019-05-03T03:52:19.367Z,4.10
2019-05-03T03:54:50.115Z,4.20
2019-05-03T03:57:20.157Z,4.30
2019-05-03T03:59:49.707Z,4.40
2019-05-03T04:02:18.491Z,4.40
2019-05-03T04:04:47.297Z,4.50
2019-05-03T04:07:16.516Z,4.40
2019-05-03T04:09:45.864Z,4.50
2019-05-03T04:12:35.209Z,4.70
2019-05-03T04:15:07.441Z,4.70
2019-05-03T04:17:46.690Z,4.90
2019-05-03T04:20:17.308Z,5.10
2019-05-03T04:22:46.299Z,5.10
2019-05-03T04:25:15.637Z,5.00
2019-05-03T04:27:45.653Z,4.90
2019-05-03T04:30:16.586Z,5.00
2019-05-03T04:32:45.547Z,5.20
2019-05-03T04:35:16.457Z,5.30
2019-05-03T04:37:45.515Z,5.10
2019-05-03T04:40:15.624Z,5.10
2019-05-03T04:42:46.347Z,5.40
2019-05-03T04:45:16.507Z,5.40
2019-05-03T04:47:46.344Z,5.30
2019-05-03T04:50:16.264Z,5.20
2019-05-03T04:52:46.431Z,5.30
2019-05-03T04:55:16.182Z,5.70
2019-05-03T04:57:49.158Z,5.80
2019-05-03T05:00:16.132Z,5.70
2019-05-03T05:02:45.904Z,5.60
2019-05-03T05:05:15.554Z,5.60
2019-05-03T05:07:45.615Z,5.80
2019-05-03T05:10:15.630Z,5.70
2019-05-03T05:12:45.787Z,5.60
2019-05-03T05:15:15.633Z,6.40
2019-05-03T05:17:46.574Z,6.20
2019-05-03T05:20:17.411Z,5.90
2019-05-03T05:22:46.403Z,5.60
2019-05-03T05:25:20.009Z,5.60
2019-05-03T05:28:07.123Z,5.50
2019-05-03T05:30:36.115Z,5.50
2019-05-03T05:33:06.643Z,5.40
2019-05-03T05:35:35.636Z,5.60
2019-05-03T05:38:04.739Z,5.60
2019-05-03T05:40:34.889Z,5.30
2019-05-03T05:43:04.905Z,5.20
2019-05-03T05:45:34.958Z,5.20
2019-05-03T05:48:05.619Z,5.30
2019-05-03T05:50:39.212Z,5.70
2019-05-03T05:53:08.207Z,5.90
2019-05-03T05:55:41.700Z,5.90
2019-05-03T05:58:21.248Z,5.80
2019-05-03T06:00:55.165Z,5.80
2019-05-03T06:03:25.267Z,5.80
2019-05-03T06:05:55.595Z,5.80
2019-05-03T06:08:41.277Z,5.60
2019-05-03T06:11:26.859Z,5.70
2019-05-03T06:13:59.819Z,6.10
2019-05-03T06:16:34.837Z,6.50
2019-05-03T06:19:05.512Z,6.60
2019-05-03T06:21:36.042Z,7.00
2019-05-03T06:24:15.876Z,7.10
2019-05-03T06:26:46.323Z,6.70
2019-05-03T06:29:15.214Z,6.80
2019-05-03T06:31:48.503Z,7.30
2019-05-03T06:34:17.499Z,8.30
2019-05-03T06:36:48.025Z,9.50
2019-05-03T06:39:16.780Z,9.70
2019-05-03T06:41:45.707Z,8.80
2019-05-03T06:44:19.098Z,7.90
2019-05-03T06:46:49.229Z,7.60
2019-05-03T06:49:18.104Z,7.60
2019-05-03T06:51:49.631Z,7.80
2019-05-03T06:54:20.738Z,8.10
2019-05-03T06:56:48.266Z,9.00
2019-05-03T06:59:18.684Z,9.00
2019-05-03T07:01:49.200Z,7.20
2019-05-03T07:04:24.418Z,6.40
2019-05-03T07:07:00.212Z,6.00
2019-05-03T07:09:45.487Z,6.00
2019-05-03T07:12:14.939Z,5.90
2019-05-03T07:14:45.019Z,5.80
2019-05-03T07:17:14.509Z,5.80
2019-05-03T07:19:45.784Z,5.90
2019-05-03T07:22:15.227Z,5.80
2019-05-03T07:24:45.595Z,5.80
2019-05-03T07:27:20.419Z,5.80
2019-05-03T07:29:49.413Z,6.00
2019-05-03T07:32:18.409Z,5.90
2019-05-03T07:34:47.406Z,5.90
2019-05-03T07:37:16.391Z,6.00
2019-05-03T07:39:45.407Z,6.20
2019-05-03T07:42:15.628Z,6.20
2019-05-03T07:44:45.047Z,6.00
2019-05-03T07:47:14.887Z,5.90
2019-05-03T07:49:44.717Z,5.70
2019-05-03T07:52:14.795Z,5.70
2019-05-03T07:54:45.156Z,6.00
2019-05-03T07:57:32.606Z,5.90
2019-05-03T08:00:01.488Z,5.70
2019-05-03T08:02:30.383Z,5.90
2019-05-03T08:04:59.280Z,5.90
2019-05-03T08:07:28.271Z,5.60
2019-05-03T08:09:57.265Z,5.40
2019-05-03T08:12:26.258Z,5.20
2019-05-03T08:14:55.263Z,5.30
2019-05-03T08:17:25.582Z,5.70
2019-05-03T08:19:55.196Z,6.00
2019-05-03T08:22:25.506Z,6.20
2019-05-03T08:24:55.532Z,6.40
2019-05-03T08:27:25.438Z,6.40
2019-05-03T08:29:55.715Z,6.50
2019-05-03T08:32:29.260Z,6.80
2019-05-03T08:35:11.771Z,6.80
2019-05-03T08:37:51.308Z,7.00
2019-05-03T08:40:21.430Z,7.20
2019-05-03T08:42:50.423Z,8.20
2019-05-03T08:52:46.396Z,10.10
2019-05-03T08:55:15.802Z,9.80
2019-05-03T08:57:45.098Z,9.00
2019-05-03T09:00:15.833Z,8.10
2019-05-03T09:02:44.889Z,7.70
2019-05-03T09:05:15.723Z,8.20
2019-05-03T09:07:44.836Z,8.30
2019-05-03T09:10:18.661Z,7.90
2019-05-03T09:13:07.322Z,7.90
2019-05-03T09:15:37.853Z,8.30
2019-05-03T09:18:06.967Z,8.90
2019-05-03T09:20:35.832Z,8.60
2019-05-03T09:23:05.474Z,8.60
2019-05-03T09:25:35.491Z,9.00
2019-05-03T09:28:05.104Z,8.60
2019-05-03T09:30:35.761Z,9.50
2019-05-03T09:35:36.068Z,10.70
2019-05-03T09:38:05.894Z,9.00
2019-05-03T09:40:35.363Z,7.20
2019-05-03T09:43:04.645Z,6.60
2019-05-03T09:45:35.279Z,7.30
2019-05-03T09:48:05.717Z,8.10
2019-05-03T09:50:35.893Z,8.00
2019-05-03T09:53:05.548Z,8.40
2019-05-03T09:55:36.829Z,8.40
2019-05-03T09:58:05.761Z,8.20
2019-05-03T10:00:55.508Z,7.50
2019-05-03T10:03:24.562Z,7.30
2019-05-03T10:05:55.392Z,7.00
2019-05-03T10:08:27.463Z,6.80
2019-05-03T10:11:11.820Z,6.60
2019-05-03T10:13:41.922Z,7.00
2019-05-03T10:16:11.335Z,7.80
2019-05-03T10:18:40.329Z,8.00
2019-05-03T10:21:09.322Z,7.80
2019-05-03T10:23:39.545Z,7.70
2019-05-03T10:26:08.599Z,7.60
2019-05-03T10:28:37.729Z,6.60
2019-05-03T10:31:07.969Z,6.90
2019-05-03T10:33:53.435Z,7.20
2019-05-03T10:36:31.028Z,7.20
2019-05-03T10:38:59.923Z,7.20
2019-05-03T10:41:28.915Z,7.00
2019-05-03T10:43:57.907Z,6.70
2019-05-03T10:46:26.900Z,6.80
2019-05-03T10:48:55.972Z,6.70
2019-05-03T10:51:26.731Z,7.20
2019-05-03T10:53:57.262Z,7.70
2019-05-03T10:56:27.789Z,7.60
2019-05-03T10:59:01.392Z,7.40
2019-05-03T11:01:45.265Z,7.40
2019-05-03T11:04:14.872Z,7.00
2019-05-03T11:06:45.755Z,6.90
2019-05-03T11:09:15.293Z,6.90
2019-05-03T11:11:47.364Z,7.10
2019-05-03T11:14:35.594Z,7.00
2019-05-03T11:17:05.679Z,7.20
2019-05-03T11:19:34.897Z,7.10
2019-05-03T11:22:05.469Z,7.20
2019-05-03T11:24:34.999Z,7.50
2019-05-03T11:27:05.779Z,7.90
2019-05-03T11:29:35.617Z,7.50
2019-05-03T11:32:25.071Z,7.60
2019-05-03T11:34:58.257Z,7.20
2019-05-03T11:37:40.461Z,7.10
2019-05-03T11:40:09.962Z,7.00
2019-05-03T11:42:38.851Z,6.60
2019-05-03T11:45:07.934Z,6.70
2019-05-03T11:47:36.821Z,6.70
2019-05-03T11:50:06.987Z,6.80
2019-05-03T11:52:35.956Z,7.00
2019-05-03T11:55:11.480Z,6.70
2019-05-03T11:57:36.822Z,6.60
2019-05-03T12:00:08.331Z,6.40
2019-05-03T12:02:38.783Z,6.30
2019-05-03T12:05:12.871Z,6.30
2019-05-03T12:07:41.894Z,6.10
2019-05-03T12:10:20.623Z,6.20
2019-05-03T12:12:44.795Z,6.40
2019-05-03T12:15:15.168Z,6.40
2019-05-03T12:17:54.233Z,6.60
2019-05-03T12:20:17.805Z,6.60
2019-05-03T12:22:47.542Z,6.80
2019-05-03T12:25:23.460Z,6.90
2019-05-03T12:27:52.983Z,6.60
2019-05-03T12:30:24.924Z,6.40
2019-05-03T12:32:54.481Z,6.30
2019-05-03T12:35:24.701Z,6.30
2019-05-03T12:37:55.352Z,6.50
2019-05-03T12:40:25.490Z,6.40
2019-05-03T12:42:55.205Z,6.30
2019-05-03T12:45:24.916Z,6.20
2019-05-03T12:47:55.845Z,6.10
2019-05-03T12:50:25.155Z,6.10
2019-05-03T12:52:55.493Z,6.30
2019-05-03T12:55:24.830Z,6.50
2019-05-03T12:57:55.290Z,6.80
2019-05-03T13:00:38.367Z,6.60
2019-05-03T13:03:07.963Z,6.50
2019-05-03T13:05:36.967Z,6.40
2019-05-03T13:08:31.774Z,6.50
2019-05-03T13:11:00.756Z,6.60
2019-05-03T13:13:29.750Z,6.70
2019-05-03T13:15:58.742Z,6.70
2019-05-03T13:18:27.748Z,6.50
2019-05-03T13:20:56.631Z,6.70
2019-05-03T13:23:25.563Z,6.60
2019-05-03T13:25:54.714Z,6.80
2019-05-03T13:28:25.335Z,6.70
2019-05-03T13:30:54.579Z,6.70
2019-05-03T13:33:23.637Z,6.80
2019-05-03T13:35:52.532Z,6.90
2019-05-03T13:38:21.402Z,7.10
2019-05-03T13:40:50.307Z,7.30
2019-05-03T13:43:19.383Z,7.50
2019-05-03T13:45:48.301Z,7.40
2019-05-03T13:48:20.999Z,7.30
2019-05-03T13:50:47.730Z,7.30
2019-05-03T13:53:16.713Z,7.40
2019-05-03T13:55:45.709Z,7.10
2019-05-03T13:58:14.822Z,7.20
2019-05-03T14:00:45.639Z,7.50
2019-05-03T14:03:15.194Z,7.50
2019-05-03T14:05:44.686Z,7.60
2019-05-03T14:08:15.642Z,7.50
2019-05-03T14:10:45.531Z,7.30
2019-05-03T14:13:14.799Z,7.10
2019-05-03T14:15:45.316Z,6.50
2019-05-03T14:18:15.240Z,6.40
2019-05-03T14:20:52.224Z,6.40
2019-05-03T14:23:21.219Z,6.50
2019-05-03T14:25:50.325Z,6.80
2019-05-03T14:28:19.207Z,7.00
2019-05-03T14:30:48.175Z,7.20
2019-05-03T14:33:16.984Z,7.00
2019-05-03T14:35:45.875Z,6.90
2019-05-03T14:38:15.204Z,7.00
2019-05-03T14:40:44.901Z,6.70
2019-05-03T14:43:16.063Z,6.60
2019-05-03T14:45:45.019Z,6.30
2019-05-03T14:48:15.207Z,6.10
2019-05-03T14:50:45.574Z,6.10
2019-05-03T14:53:14.822Z,6.20
2019-05-03T14:55:51.337Z,6.30
2019-05-03T14:58:35.157Z,6.40
2019-05-03T15:01:21.372Z,6.30
2019-05-03T15:03:50.371Z,6.50
2019-05-03T15:06:19.259Z,6.40
2019-05-03T15:08:48.254Z,6.40
2019-05-03T15:11:17.245Z,6.60
2019-05-03T15:13:46.253Z,6.70
2019-05-03T15:16:15.233Z,6.70
2019-05-03T15:18:45.350Z,6.60
2019-05-03T15:21:14.633Z,6.50
2019-05-03T15:23:45.317Z,6.50
2019-05-03T15:26:14.275Z,6.50
2019-05-03T15:28:44.896Z,6.40
2019-05-03T15:31:13.782Z,6.30
2019-05-03T15:33:44.782Z,6.10
2019-05-03T15:36:15.452Z,6.00
2019-05-03T15:38:44.608Z,6.10
2019-05-03T15:41:14.665Z,6.20
2019-05-03T15:43:51.154Z,6.20
2019-05-03T15:46:40.012Z,6.20
2019-05-03T15:49:09.004Z,6.10
2019-05-03T15:51:38.000Z,6.30
2019-05-03T15:54:06.759Z,6.10
2019-05-03T15:56:35.677Z,6.10
2019-05-03T15:59:04.673Z,6.00
2019-05-03T16:01:35.369Z,6.10
2019-05-03T16:04:04.801Z,6.00
2019-05-03T16:06:33.800Z,6.10
2019-05-03T16:09:04.473Z,6.00
2019-05-03T16:11:34.389Z,6.20
2019-05-03T16:14:04.535Z,6.50
2019-05-03T16:16:35.247Z,6.60
2019-05-03T16:19:05.462Z,6.80
2019-05-03T16:21:36.840Z,6.80
2019-05-03T16:24:05.761Z,6.70
2019-05-03T16:26:36.288Z,6.70
2019-05-03T16:29:12.555Z,6.40
2019-05-03T16:31:41.549Z,6.20
2019-05-03T16:34:10.431Z,6.20
2019-05-03T16:36:39.436Z,6.10
2019-05-03T16:39:08.199Z,5.70
2019-05-03T16:41:37.226Z,5.60
2019-05-03T16:44:06.216Z,5.50
2019-05-03T16:46:35.010Z,5.60
2019-05-03T16:49:04.491Z,5.80
2019-05-03T16:51:34.955Z,5.80
2019-05-03T16:54:05.570Z,5.70
2019-05-03T16:56:35.295Z,5.80
2019-05-03T16:59:05.732Z,5.90
2019-05-03T17:01:35.224Z,6.00
2019-05-03T17:04:25.059Z,5.80
2019-05-03T17:07:07.233Z,5.60
2019-05-03T17:09:52.992Z,5.20
2019-05-03T17:12:25.923Z,5.20
2019-05-03T17:14:56.999Z,5.30
2019-05-03T17:17:25.413Z,5.30
2019-05-03T17:19:55.131Z,5.40
2019-05-03T17:22:25.209Z,5.40
2019-05-03T17:24:54.154Z,5.40
2019-05-03T17:27:24.874Z,5.50
2019-05-03T17:29:55.177Z,5.50
2019-05-03T17:32:24.550Z,5.50
2019-05-03T17:34:54.855Z,5.60
2019-05-03T17:37:25.673Z,5.50
2019-05-03T17:40:14.990Z,5.50
2019-05-03T17:42:51.574Z,5.50
2019-05-03T17:45:22.001Z,5.40
2019-05-03T17:47:50.791Z,5.30
2019-05-03T17:50:19.878Z,5.20
2019-05-03T17:52:54.576Z,5.20
2019-05-03T17:55:37.007Z,5.20
2019-05-03T17:58:16.533Z,5.00
2019-05-03T18:00:47.084Z,5.10
2019-05-03T18:03:17.108Z,5.00
2019-05-03T18:05:53.709Z,5.00
2019-05-03T18:08:26.997Z,4.90
2019-05-03T18:10:57.433Z,4.80
2019-05-03T18:13:26.262Z,4.70
2019-05-03T18:15:55.045Z,4.60
2019-05-03T18:18:25.496Z,4.40
2019-05-03T18:20:55.457Z,4.40
2019-05-03T18:23:24.663Z,4.20
2019-05-03T18:25:54.818Z,4.00
2019-05-03T18:28:25.015Z,3.90
2019-05-03T18:30:54.711Z,3.80
2019-05-03T18:33:24.718Z,3.80
2019-05-03T18:35:55.057Z,3.70
2019-05-03T18:38:25.379Z,3.60
2019-05-03T18:40:55.267Z,3.60
2019-05-03T18:43:41.232Z,3.60
2019-05-03T18:46:31.030Z,3.50
2019-05-03T18:48:59.801Z,3.30
2019-05-03T18:51:28.586Z,3.20
2019-05-03T18:53:57.418Z,3.20
2019-05-03T18:56:26.304Z,3.10
2019-05-03T18:58:55.170Z,3.00
2019-05-03T19:01:25.359Z,3.00
2019-05-03T19:03:56.006Z,2.90
2019-05-03T19:06:24.905Z,2.80
2019-05-03T19:08:58.131Z,2.80
2019-05-03T19:11:28.621Z,2.70
2019-05-03T19:14:05.095Z,2.70
2019-05-03T19:16:51.758Z,2.60
2019-05-03T19:19:22.164Z,2.60
2019-05-03T19:21:51.004Z,2.50
2019-05-03T19:24:20.318Z,2.60
2019-05-03T19:26:49.090Z,2.60
2019-05-03T19:29:19.536Z,2.70
2019-05-03T19:31:49.299Z,2.60
2019-05-03T19:34:18.239Z,2.60
2019-05-03T19:36:47.128Z,2.50
2019-05-03T19:39:16.405Z,2.40
2019-05-03T19:41:45.301Z,2.30
2019-05-03T19:44:15.130Z,2.20
2019-05-03T19:46:44.504Z,2.10
2019-05-03T19:49:13.631Z,2.10
2019-05-03T19:51:42.622Z,2.10
2019-05-03T19:54:11.600Z,2.00
2019-05-03T19:56:40.498Z,2.00
2019-05-03T19:59:11.137Z,1.90
2019-05-03T20:01:49.242Z,1.90
2019-05-03T20:04:28.676Z,1.80
2019-05-03T20:07:05.360Z,1.80
2019-05-03T20:09:35.065Z,1.80
2019-05-03T20:12:24.593Z,1.80
2019-05-03T20:14:54.613Z,1.80
2019-05-03T20:17:23.855Z,1.80
2019-05-03T20:19:54.367Z,1.80
2019-05-03T20:22:24.475Z,1.80
2019-05-03T20:24:55.169Z,1.80
2019-05-03T20:27:24.426Z,1.80
2019-05-03T20:29:55.312Z,1.90
2019-05-03T20:32:25.172Z,1.90
2019-05-03T20:34:55.132Z,1.90
2019-05-03T20:37:25.097Z,1.90
2019-05-03T20:39:54.537Z,1.80
2019-05-03T20:42:41.742Z,1.80
2019-05-03T20:45:14.317Z,1.80
2019-05-03T20:47:45.379Z,1.80
2019-05-03T20:50:18.246Z,1.70
2019-05-03T20:52:47.238Z,1.80
2019-05-03T20:55:16.209Z,1.80
2019-05-03T20:57:44.999Z,1.90
2019-05-03T21:00:15.155Z,1.90
2019-05-03T21:02:51.518Z,1.90
2019-05-03T21:05:26.817Z,1.80
2019-05-03T21:07:45.550Z,1.70
2019-05-03T21:10:16.024Z,1.70
2019-05-03T21:12:45.018Z,1.60
2019-05-03T21:15:21.387Z,1.60
2019-05-03T21:18:04.893Z,1.70
2019-05-03T21:20:38.289Z,1.70
2019-05-03T21:23:08.911Z,1.60
2019-05-03T21:26:08.200Z,1.60
2019-05-03T21:28:26.593Z,1.60
2019-05-03T21:30:55.477Z,1.60
2019-05-03T21:33:25.808Z,1.60
2019-05-03T21:35:55.695Z,1.70
2019-05-03T21:38:24.718Z,1.60
2019-05-03T21:40:54.637Z,1.60
2019-05-03T21:43:25.586Z,1.50
2019-05-03T21:45:58.581Z,1.50
2019-05-03T21:48:29.029Z,1.50
2019-05-03T21:50:57.980Z,1.50
2019-05-03T21:53:26.971Z,1.50
2019-05-03T21:55:55.845Z,1.60
2019-05-03T21:58:25.095Z,1.60
2019-05-03T22:00:58.656Z,1.60
2019-05-03T22:03:27.550Z,1.60
2019-05-03T22:05:58.055Z,1.50
2019-05-03T22:08:27.072Z,1.60
2019-05-03T22:10:56.065Z,1.60
2019-05-03T22:13:25.058Z,1.60
2019-05-03T22:15:55.489Z,1.60
2019-05-03T22:18:26.097Z,1.60
2019-05-03T22:20:56.645Z,1.50
2019-05-03T22:23:42.326Z,1.60
2019-05-03T22:26:11.212Z,1.50
2019-05-03T22:28:40.216Z,1.50
2019-05-03T22:31:09.206Z,1.50
2019-05-03T22:33:38.206Z,1.50
2019-05-03T22:36:08.948Z,1.60
2019-05-03T22:38:38.536Z,1.50
2019-05-03T22:41:07.485Z,1.50
2019-05-03T22:43:36.442Z,1.50
2019-05-03T22:46:05.410Z,1.50
2019-05-03T22:48:55.108Z,1.40
2019-05-03T22:51:24.449Z,1.30
2019-05-03T22:53:54.975Z,1.20
2019-05-03T22:56:24.858Z,1.20
2019-05-03T22:58:54.771Z,1.10
2019-05-03T23:01:25.565Z,1.20
2019-05-03T23:03:55.063Z,1.20
2019-05-03T23:06:25.184Z,1.10
2019-05-03T23:08:56.020Z,1.10
2019-05-03T23:11:24.744Z,1.10
2019-05-03T23:14:04.626Z,1.10
2019-05-03T23:16:35.411Z,1.10
2019-05-03T23:19:05.556Z,1.00
2019-05-03T23:21:45.595Z,0.90
2019-05-03T23:24:15.433Z,0.80
2019-05-03T23:26:45.127Z,0.80
2019-05-03T23:29:14.309Z,0.80
2019-05-03T23:31:44.857Z,0.80
2019-05-03T23:34:13.943Z,0.80
2019-05-03T23:36:42.932Z,0.70
2019-05-03T23:39:11.925Z,0.70
2019-05-03T23:41:40.814Z,0.70
2019-05-03T23:44:09.705Z,0.70
2019-05-03T23:46:49.140Z,0.60
2019-05-03T23:49:18.036Z,0.60
2019-05-03T23:51:48.571Z,0.60
2019-05-03T23:54:17.561Z,0.60
2019-05-03T23:56:46.552Z,0.70
2019-05-03T23:59:15.552Z,0.70
